createdAt,value
2023-02-07T00:01:00.646Z,-4.98
2023-02-07T00:04:12.277Z,-5.01
2023-02-07T00:07:14.911Z,-5.03
2023-02-07T00:10:17.564Z,-5.05
2023-02-07T00:13:20.342Z,-5.07
2023-02-07T00:16:25.612Z,-5.07
2023-02-07T00:19:28.573Z,-5.07
2023-02-07T00:22:31.638Z,-5.06
2023-02-07T00:25:34.439Z,-5.01
2023-02-07T00:28:37.361Z,-4.94
2023-02-07T00:31:40.556Z,-4.91
2023-02-07T00:34:46.103Z,-4.88
2023-02-07T00:37:50.521Z,-4.83
2023-02-07T00:40:53.242Z,-4.79
2023-02-07T00:43:56.061Z,-4.68
2023-02-07T00:46:59.477Z,-4.49
2023-02-07T00:50:02.339Z,-4.34
2023-02-07T00:53:05.520Z,-4.20
2023-02-07T00:56:08.825Z,-4.04
2023-02-07T00:59:14.200Z,-3.90
2023-02-07T01:02:16.936Z,-3.79
2023-02-07T01:05:19.632Z,-3.68
2023-02-07T01:08:22.319Z,-3.58
2023-02-07T01:11:25.422Z,-3.48
2023-02-07T01:14:28.124Z,-3.43
2023-02-07T01:17:30.932Z,-3.33
2023-02-07T01:20:33.676Z,-3.25
2023-02-07T01:23:36.296Z,-3.16
2023-02-07T01:26:39.736Z,-3.08
2023-02-07T01:29:43.077Z,-3.06
2023-02-07T01:32:45.769Z,-3.02
2023-02-07T01:35:50.724Z,-2.98
2023-02-07T01:38:54.072Z,-2.93
2023-02-07T01:41:56.827Z,-2.86
2023-02-07T01:45:05.308Z,-2.82
2023-02-07T01:48:16.600Z,-2.83
2023-02-07T01:51:20.579Z,-2.91
2023-02-07T01:54:23.450Z,-2.97
2023-02-07T01:57:27.569Z,-3.04
2023-02-07T02:00:30.748Z,-3.08
2023-02-07T02:03:35.722Z,-3.14
2023-02-07T02:06:40.285Z,-3.17
2023-02-07T02:09:46.029Z,-3.18
2023-02-07T02:13:03.170Z,-3.21
2023-02-07T02:16:07.863Z,-3.24
2023-02-07T02:19:29.717Z,-3.26
2023-02-07T02:22:35.208Z,-3.29
2023-02-07T02:25:46.455Z,-3.32
2023-02-07T02:29:18.713Z,-3.37
2023-02-07T02:32:39.898Z,-3.41
2023-02-07T02:35:47.894Z,-3.43
2023-02-07T02:39:11.972Z,-3.45
2023-02-07T02:42:16.295Z,-3.47
2023-02-07T02:45:23.096Z,-3.42
2023-02-07T02:48:30.200Z,-3.35
2023-02-07T02:51:32.861Z,-3.29
2023-02-07T02:54:36.980Z,-3.21
2023-02-07T02:57:57.282Z,-3.15
2023-02-07T03:01:38.777Z,-3.07
2023-02-07T03:04:44.204Z,-2.97
2023-02-07T03:08:03.557Z,-2.89
2023-02-07T03:11:14.466Z,-2.81
2023-02-07T03:14:26.841Z,-2.75
2023-02-07T03:17:49.437Z,-2.72
2023-02-07T03:20:56.283Z,-2.67
2023-02-07T03:24:00.812Z,-2.67
2023-02-07T03:27:06.338Z,-2.65
2023-02-07T03:30:11.800Z,-2.58
2023-02-07T03:33:14.853Z,-2.52
2023-02-07T03:36:32.197Z,-2.51
2023-02-07T03:39:35.030Z,-2.48
2023-02-07T03:42:40.198Z,-2.46
2023-02-07T03:45:42.961Z,-2.42
2023-02-07T03:48:45.579Z,-2.44
2023-02-07T03:51:48.819Z,-2.42
2023-02-07T03:54:51.459Z,-2.48
2023-02-07T03:57:54.169Z,-2.52
2023-02-07T04:00:56.997Z,-2.58
2023-02-07T04:03:59.820Z,-2.56
2023-02-07T04:07:02.592Z,-2.55
2023-02-07T04:10:06.093Z,-2.52
2023-02-07T04:13:08.768Z,-2.53
2023-02-07T04:16:13.462Z,-2.49
2023-02-07T04:19:16.612Z,-2.44
2023-02-07T04:22:19.638Z,-2.44
2023-02-07T04:25:24.560Z,-2.44
2023-02-07T04:28:27.367Z,-2.45
2023-02-07T04:31:30.100Z,-2.47
2023-02-07T04:34:32.770Z,-2.49
2023-02-07T04:37:35.559Z,-2.43
2023-02-07T04:40:39.055Z,-2.42
2023-02-07T04:43:42.441Z,-2.41
2023-02-07T04:46:45.096Z,-2.41
2023-02-07T04:49:47.996Z,-2.39
2023-02-07T04:52:50.680Z,-2.36
2023-02-07T04:55:56.629Z,-2.38
2023-02-07T04:58:59.392Z,-2.38
2023-02-07T05:02:02.008Z,-2.37
2023-02-07T05:05:04.826Z,-2.34
2023-02-07T05:08:07.664Z,-2.32
2023-02-07T05:11:10.823Z,-2.29
2023-02-07T05:14:16.108Z,-2.29
2023-02-07T05:17:18.727Z,-2.30
2023-02-07T05:20:21.363Z,-2.29
2023-02-07T05:23:24.424Z,-2.30
2023-02-07T05:26:27.145Z,-2.29
2023-02-07T05:29:29.796Z,-2.23
2023-02-07T05:32:51.065Z,-2.15
2023-02-07T05:35:53.787Z,-2.11
2023-02-07T05:38:56.568Z,-2.05
2023-02-07T05:41:59.221Z,-2.05
2023-02-07T05:45:01.885Z,-2.08
2023-02-07T05:48:04.629Z,-2.10
2023-02-07T05:51:07.314Z,-2.10
2023-02-07T05:54:09.926Z,-2.09
2023-02-07T05:57:12.592Z,-2.05
2023-02-07T06:00:16.815Z,-2.04
2023-02-07T06:03:20.737Z,-2.09
2023-02-07T06:06:23.376Z,-2.11
2023-02-07T06:09:25.988Z,-2.11
2023-02-07T06:12:28.702Z,-2.08
2023-02-07T06:15:31.372Z,-2.11
2023-02-07T06:18:34.005Z,-2.08
2023-02-07T06:21:46.025Z,-2.06
2023-02-07T06:24:49.540Z,-2.03
2023-02-07T06:27:52.246Z,-2.01
2023-02-07T06:30:54.974Z,-1.98
2023-02-07T06:33:58.837Z,-1.96
2023-02-07T06:37:01.576Z,-1.94
2023-02-07T06:40:06.677Z,-1.89
2023-02-07T06:43:09.901Z,-1.89
2023-02-07T06:46:12.691Z,-1.89
2023-02-07T06:49:16.633Z,-1.89
2023-02-07T06:52:20.159Z,-1.84
2023-02-07T06:55:22.764Z,-1.84
2023-02-07T06:58:25.829Z,-1.82
2023-02-07T07:01:28.575Z,-1.78
2023-02-07T07:04:33.740Z,-1.74
2023-02-07T07:07:36.630Z,-1.72
2023-02-07T07:10:39.290Z,-1.72
2023-02-07T07:13:42.057Z,-1.74
2023-02-07T07:16:44.739Z,-1.77
2023-02-07T07:19:47.429Z,-1.75
2023-02-07T07:22:50.131Z,-1.75
2023-02-07T07:25:52.899Z,-1.71
2023-02-07T07:28:58.389Z,-1.67
2023-02-07T07:32:01.141Z,-1.63
2023-02-07T07:35:07.280Z,-1.59
2023-02-07T07:38:09.904Z,-1.57
2023-02-07T07:41:12.538Z,-1.55
2023-02-07T07:44:15.212Z,-1.53
2023-02-07T07:47:19.192Z,-1.50
2023-02-07T07:50:21.859Z,-1.47
2023-02-07T07:53:24.903Z,-1.44
2023-02-07T07:56:29.604Z,-1.38
2023-02-07T07:59:32.268Z,-1.36
2023-02-07T08:02:34.955Z,-1.30
2023-02-07T08:05:37.821Z,-1.30
2023-02-07T08:08:40.680Z,-1.34
2023-02-07T08:11:43.410Z,-1.29
2023-02-07T08:14:46.163Z,-1.25
2023-02-07T08:17:51.273Z,-1.23
2023-02-07T08:20:56.517Z,-1.20
2023-02-07T08:23:59.312Z,-1.18
2023-02-07T08:27:02.680Z,-1.18
2023-02-07T08:30:06.845Z,-1.21
2023-02-07T08:33:09.503Z,-1.18
2023-02-07T08:36:13.026Z,-1.16
2023-02-07T08:39:19.066Z,-1.13
2023-02-07T08:42:22.431Z,-1.14
2023-02-07T08:45:25.587Z,-1.13
2023-02-07T08:48:28.469Z,-1.10
2023-02-07T08:51:31.109Z,-1.09
2023-02-07T08:54:52.360Z,-1.04
2023-02-07T08:57:55.123Z,-1.01
2023-02-07T09:00:57.810Z,-0.90
2023-02-07T09:04:00.443Z,-0.88
2023-02-07T09:07:03.094Z,-0.89
2023-02-07T09:10:07.047Z,-0.87
2023-02-07T09:13:09.814Z,-0.86
2023-02-07T09:16:20.800Z,-0.84
2023-02-07T09:19:23.593Z,-0.87
2023-02-07T09:22:26.528Z,-0.89
2023-02-07T09:25:29.148Z,-0.88
2023-02-07T09:28:31.983Z,-0.88
2023-02-07T09:31:34.861Z,-0.86
2023-02-07T09:34:38.035Z,-0.84
2023-02-07T09:37:49.409Z,-0.79
2023-02-07T09:40:53.659Z,-0.72
2023-02-07T09:44:14.307Z,-0.67
2023-02-07T09:47:22.451Z,-0.62
2023-02-07T09:50:34.552Z,-0.53
2023-02-07T09:53:45.004Z,-0.38
2023-02-07T09:56:49.872Z,-0.20
2023-02-07T10:00:02.746Z,-0.03
2023-02-07T10:03:21.133Z,0.13
2023-02-07T10:06:27.326Z,0.29
2023-02-07T10:09:36.576Z,0.40
2023-02-07T10:12:39.201Z,0.50
2023-02-07T10:15:41.805Z,0.71
2023-02-07T10:18:47.611Z,0.74
2023-02-07T10:21:54.787Z,0.78
2023-02-07T10:25:16.382Z,0.78
2023-02-07T10:28:19.085Z,0.81
2023-02-07T10:31:23.937Z,0.86
2023-02-07T10:34:35.795Z,0.90
2023-02-07T10:37:39.275Z,0.86
2023-02-07T10:40:48.767Z,0.76
2023-02-07T10:43:53.115Z,0.71
2023-02-07T10:46:58.615Z,0.67
2023-02-07T10:50:04.048Z,0.63
2023-02-07T10:53:06.717Z,0.60
2023-02-07T10:56:20.094Z,0.56
2023-02-07T10:59:39.186Z,0.53
2023-02-07T11:02:49.741Z,0.70
2023-02-07T11:05:57.295Z,0.93
2023-02-07T11:09:13.873Z,1.11
2023-02-07T11:12:23.573Z,1.11
2023-02-07T11:15:46.140Z,1.02
2023-02-07T11:18:59.997Z,0.98
2023-02-07T11:22:19.153Z,0.98
2023-02-07T11:25:29.711Z,0.95
2023-02-07T11:28:34.670Z,0.93
2023-02-07T11:31:39.425Z,0.89
2023-02-07T11:34:55.098Z,0.78
2023-02-07T11:38:03.670Z,0.74
2023-02-07T11:41:16.546Z,0.72
2023-02-07T11:44:19.229Z,0.67
2023-02-07T11:47:24.407Z,0.80
2023-02-07T11:50:41.085Z,0.93
2023-02-07T11:53:54.054Z,1.05
2023-02-07T11:57:16.676Z,1.11
2023-02-07T12:00:23.836Z,1.11
2023-02-07T12:03:27.871Z,1.05
2023-02-07T12:06:33.352Z,0.93
2023-02-07T12:09:41.023Z,0.87
2023-02-07T12:12:46.779Z,0.85
2023-02-07T12:15:52.904Z,0.85
2023-02-07T12:19:14.396Z,0.82
2023-02-07T12:22:20.126Z,0.84
2023-02-07T12:25:24.849Z,0.87
2023-02-07T12:28:31.841Z,0.87
2023-02-07T12:31:42.526Z,0.75
2023-02-07T12:34:49.724Z,0.69
2023-02-07T12:38:01.680Z,0.65
2023-02-07T12:41:17.054Z,0.73
2023-02-07T12:44:25.632Z,0.93
2023-02-07T12:47:34.013Z,1.01
2023-02-07T12:51:02.645Z,1.10
2023-02-07T12:54:17.452Z,1.10
2023-02-07T12:57:23.000Z,1.07
2023-02-07T13:00:42.619Z,1.02
2023-02-07T13:04:03.976Z,0.89
2023-02-07T13:07:06.570Z,0.77
2023-02-07T13:10:15.273Z,0.72
2023-02-07T13:13:24.810Z,0.67
2023-02-07T13:16:38.604Z,0.60
2023-02-07T13:20:07.677Z,0.58
2023-02-07T13:23:19.137Z,0.55
2023-02-07T13:26:26.627Z,0.48
2023-02-07T13:29:31.828Z,0.44
2023-02-07T13:32:34.549Z,0.40
2023-02-07T13:35:52.447Z,0.36
2023-02-07T13:39:01.042Z,0.47
2023-02-07T13:42:17.927Z,0.57
2023-02-07T13:45:28.795Z,0.72
2023-02-07T13:48:35.360Z,0.79
2023-02-07T13:51:50.675Z,0.76
2023-02-07T13:54:56.337Z,0.71
2023-02-07T13:58:17.618Z,0.65
2023-02-07T14:01:24.891Z,0.58
2023-02-07T14:04:45.660Z,0.52
2023-02-07T14:07:55.521Z,0.43
2023-02-07T14:10:59.218Z,0.36
2023-02-07T14:14:25.621Z,0.27
2023-02-07T14:17:29.724Z,0.14
2023-02-07T14:20:40.605Z,0.09
2023-02-07T14:24:02.513Z,-0.03
2023-02-07T14:27:05.929Z,-0.11
2023-02-07T14:30:18.996Z,-0.15
2023-02-07T14:33:22.491Z,-0.21
2023-02-07T14:36:26.108Z,-0.23
2023-02-07T14:39:33.058Z,-0.27
2023-02-07T14:42:36.494Z,-0.30
2023-02-07T14:45:40.746Z,-0.32
2023-02-07T14:48:43.434Z,-0.32
2023-02-07T14:51:59.658Z,-0.35
2023-02-07T14:55:08.835Z,-0.40
2023-02-07T14:58:37.693Z,-0.45
2023-02-07T15:01:40.411Z,-0.52
2023-02-07T15:04:43.742Z,-0.55
2023-02-07T15:07:47.473Z,-0.57
2023-02-07T15:10:53.659Z,-0.47
2023-02-07T15:13:59.778Z,-0.33
2023-02-07T15:17:03.565Z,-0.22
2023-02-07T15:20:06.646Z,-0.07
2023-02-07T15:23:16.341Z,-0.01
2023-02-07T15:26:20.135Z,-0.01
2023-02-07T15:29:25.546Z,-0.03
2023-02-07T15:32:31.185Z,0.04
2023-02-07T15:35:39.482Z,0.07
2023-02-07T15:38:42.442Z,-0.05
2023-02-07T15:41:45.956Z,-0.15
2023-02-07T15:44:53.199Z,-0.24
2023-02-07T15:48:03.128Z,-0.33
2023-02-07T15:51:06.136Z,-0.38
2023-02-07T15:54:15.643Z,-0.46
2023-02-07T15:57:30.789Z,-0.52
2023-02-07T16:00:40.489Z,-0.59
2023-02-07T16:03:44.917Z,-0.68
2023-02-07T16:07:23.284Z,-0.75
2023-02-07T16:10:35.962Z,-0.84
2023-02-07T16:13:58.858Z,-0.83
2023-02-07T16:17:01.856Z,-0.86
2023-02-07T16:20:04.925Z,-0.87
2023-02-07T16:23:09.443Z,-0.86
2023-02-07T16:26:14.345Z,-0.87
2023-02-07T16:29:23.307Z,-0.90
2023-02-07T16:32:28.134Z,-0.92
2023-02-07T16:35:30.798Z,-0.93
2023-02-07T16:38:34.652Z,-0.90
2023-02-07T16:41:41.535Z,-0.74
2023-02-07T16:44:45.447Z,-0.58
2023-02-07T16:47:48.330Z,-0.41
2023-02-07T16:50:50.994Z,-0.24
2023-02-07T16:54:18.088Z,-0.14
2023-02-07T16:57:27.410Z,-0.11
2023-02-07T17:00:32.330Z,-0.17
2023-02-07T17:03:35.112Z,-0.23
2023-02-07T17:06:38.396Z,-0.30
2023-02-07T17:09:41.119Z,-0.41
2023-02-07T17:12:43.713Z,-0.47
2023-02-07T17:15:48.342Z,-0.51
2023-02-07T17:18:51.656Z,-0.59
2023-02-07T17:21:54.437Z,-0.66
2023-02-07T17:24:59.660Z,-0.69
2023-02-07T17:28:02.500Z,-0.71
2023-02-07T17:31:05.388Z,-0.76
2023-02-07T17:34:08.610Z,-0.80
2023-02-07T17:37:12.188Z,-0.87
2023-02-07T17:40:23.611Z,-0.93
2023-02-07T17:43:26.326Z,-0.95
2023-02-07T17:46:29.062Z,-0.94
2023-02-07T17:49:31.730Z,-0.97
2023-02-07T17:52:35.033Z,-1.03
2023-02-07T17:55:38.153Z,-1.03
2023-02-07T17:58:40.903Z,-1.05
2023-02-07T18:01:43.605Z,-1.06
2023-02-07T18:04:46.295Z,-1.09
2023-02-07T18:07:51.634Z,-1.10
2023-02-07T18:10:55.199Z,-1.01
2023-02-07T18:13:57.894Z,-0.83
2023-02-07T18:17:00.534Z,-0.67
2023-02-07T18:20:04.734Z,-0.51
2023-02-07T18:23:07.593Z,-0.31
2023-02-07T18:26:15.173Z,-0.24
2023-02-07T18:29:18.106Z,-0.22
2023-02-07T18:32:20.884Z,-0.22
2023-02-07T18:35:23.663Z,-0.28
2023-02-07T18:38:26.389Z,-0.35
2023-02-07T18:41:29.024Z,-0.42
2023-02-07T18:44:31.992Z,-0.51
2023-02-07T18:47:34.627Z,-0.60
2023-02-07T18:50:41.694Z,-0.68
2023-02-07T18:53:44.610Z,-0.75
2023-02-07T18:56:52.498Z,-0.81
2023-02-07T18:59:55.199Z,-0.87
2023-02-07T19:02:57.908Z,-0.89
2023-02-07T19:06:01.749Z,-0.91
2023-02-07T19:09:04.419Z,-0.94
2023-02-07T19:12:09.244Z,-0.96
2023-02-07T19:15:12.640Z,-0.99
2023-02-07T19:18:15.411Z,-1.03
2023-02-07T19:21:26.167Z,-1.05
2023-02-07T19:24:28.914Z,-1.08
2023-02-07T19:27:31.665Z,-1.10
2023-02-07T19:30:39.064Z,-0.98
2023-02-07T19:33:42.015Z,-0.78
2023-02-07T19:36:44.948Z,-0.60
2023-02-07T19:39:49.150Z,-0.43
2023-02-07T19:42:51.839Z,-0.32
2023-02-07T19:45:54.622Z,-0.31
2023-02-07T19:49:00.268Z,-0.33
2023-02-07T19:52:02.963Z,-0.35
2023-02-07T19:55:05.792Z,-0.42
2023-02-07T19:58:08.595Z,-0.49
2023-02-07T20:01:11.673Z,-0.51
2023-02-07T20:04:14.376Z,-0.52
2023-02-07T20:07:17.164Z,-0.52
2023-02-07T20:10:20.219Z,-0.58
2023-02-07T20:13:22.825Z,-0.63
2023-02-07T20:16:26.723Z,-0.71
2023-02-07T20:19:29.617Z,-0.79
2023-02-07T20:22:32.746Z,-0.86
2023-02-07T20:25:39.252Z,-0.91
2023-02-07T20:28:41.905Z,-0.94
2023-02-07T20:31:46.097Z,-0.97
2023-02-07T20:34:48.932Z,-1.00
2023-02-07T20:37:51.740Z,-1.03
2023-02-07T20:40:56.525Z,-1.05
2023-02-07T20:44:03.635Z,-1.07
2023-02-07T20:47:09.669Z,-1.08
2023-02-07T20:50:12.411Z,-1.10
2023-02-07T20:53:15.057Z,-1.12
2023-02-07T20:56:18.122Z,-1.12
2023-02-07T20:59:25.248Z,-1.13
2023-02-07T21:02:27.961Z,-1.03
2023-02-07T21:05:33.340Z,-0.83
2023-02-07T21:08:36.397Z,-0.65
2023-02-07T21:11:41.596Z,-0.48
2023-02-07T21:14:44.319Z,-0.33
2023-02-07T21:17:46.983Z,-0.27
2023-02-07T21:20:50.112Z,-0.29
2023-02-07T21:23:54.731Z,-0.33
2023-02-07T21:26:57.886Z,-0.34
2023-02-07T21:30:00.725Z,-0.42
2023-02-07T21:33:04.224Z,-0.49
2023-02-07T21:36:09.388Z,-0.57
2023-02-07T21:39:12.732Z,-0.62
2023-02-07T21:42:15.623Z,-0.66
2023-02-07T21:45:18.694Z,-0.71
2023-02-07T21:48:22.388Z,-0.77
2023-02-07T21:51:25.966Z,-0.82
2023-02-07T21:54:28.785Z,-0.89
2023-02-07T21:57:31.484Z,-0.94
2023-02-07T22:00:34.102Z,-0.98
2023-02-07T22:03:37.913Z,-1.03
2023-02-07T22:06:42.290Z,-1.05
2023-02-07T22:09:45.031Z,-1.07
2023-02-07T22:12:47.642Z,-1.08
2023-02-07T22:15:51.022Z,-1.10
2023-02-07T22:18:54.644Z,-1.11
2023-02-07T22:21:58.966Z,-1.12
2023-02-07T22:25:01.893Z,-1.15
2023-02-07T22:28:04.695Z,-1.17
2023-02-07T22:31:11.386Z,-1.14
2023-02-07T22:34:15.491Z,-0.98
2023-02-07T22:37:18.152Z,-0.81
2023-02-07T22:40:20.841Z,-0.63
2023-02-07T22:43:23.595Z,-0.51
2023-02-07T22:46:26.267Z,-0.43
2023-02-07T22:49:29.043Z,-0.43
2023-02-07T22:52:33.197Z,-0.45
2023-02-07T22:55:36.007Z,-0.49
2023-02-07T22:58:39.871Z,-0.54
2023-02-07T23:01:42.996Z,-0.58
2023-02-07T23:04:45.646Z,-0.63
2023-02-07T23:07:48.453Z,-0.73
2023-02-07T23:10:51.113Z,-0.81
2023-02-07T23:13:54.118Z,-0.88
2023-02-07T23:16:56.772Z,-0.92
2023-02-07T23:19:59.401Z,-0.98
2023-02-07T23:23:02.094Z,-1.04
2023-02-07T23:26:08.892Z,-1.06
2023-02-07T23:29:11.520Z,-1.09
2023-02-07T23:32:16.463Z,-1.11
2023-02-07T23:35:19.172Z,-1.15
2023-02-07T23:38:21.836Z,-1.19
2023-02-07T23:41:24.523Z,-1.22
2023-02-07T23:44:27.188Z,-1.25
2023-02-07T23:47:29.867Z,-1.28
2023-02-07T23:50:32.755Z,-1.31
2023-02-07T23:53:35.516Z,-1.33
2023-02-07T23:56:38.494Z,-1.34
2023-02-07T23:59:41.134Z,-1.35
